Air Navigation Services of Czech Republic  
Last data update:  14.06.2021 02:47:25 UTC česká verze
   METEO Page displayed:  14.06.2021 02:48:33 UTC  
vysvětlivky
METAR EDDB 140220Z 25003KT CAVOK 10/08 Q1024 NOSIG=
METAR EDDC 140220Z 23004KT CAVOK 09/07 Q1025=
METAR EDDE 140220Z 21007KT CAVOK 09/07 Q1025=
METAR EDDF 140220Z VRB02KT CAVOK 12/09 Q1024 NOSIG=
METAR EDDM 140220Z 04005KT 010V070 CAVOK 09/07 Q1024 NOSIG=
METAR EDDN 140220Z 09003KT CAVOK 09/07 Q1025=
METAR EDDP 140220Z 34002KT CAVOK 10/08 Q1024 NOSIG=
METAR EDQM NIL
METAR EPBY 140230Z 26005KT CAVOK 07/06 Q1022=
METAR EPGD 140230Z 26004KT CAVOK 10/08 Q1021=
METAR EPKK 140230Z VRB03KT CAVOK 10/07 Q1022=
METAR EPKT 140230Z VRB02KT 9999 MIFG NSC 06/06 Q1023=
METAR EPLL 140230Z 27002KT CAVOK 08/07 Q1022=
METAR EPPO 140230Z 28004KT CAVOK 07/06 Q1023=
METAR EPRZ 140230Z 31010KT CAVOK 11/10 Q1019=
METAR EPWA 140230Z 30006KT CAVOK 10/08 Q1020 NOSIG=
METAR EPWR 140230Z 30003KT 9999 MIFG BKN044 08/07 Q1024=
METAR LHBP 140230Z 33007KT CAVOK 10/06 Q1020 NOSIG=
METAR LHSM 140215Z AUTO 31008KT CAVOK 12/06 Q1023=
METAR LKBC 140230Z AUTO 04001KT CAVOK 06/05 Q1025=
METAR LKCV 140230Z VRB02KT CAVOK 10/08 Q1024 NOSIG RMK BLU BLU=
METAR LKKB 140230Z 20003KT 170V240 CAVOK 08/06 Q1025 RMK BLU=
METAR LKKU NIL
METAR LKKV 140200Z 12001KT CAVOK 05/03 Q1025 RMK REG QNH 1022=
METAR LKLN 140230Z AUTO 00000KT CAVOK 06/06 Q1026=
METAR LKMT 140230Z 21003KT CAVOK 09/08 Q1024 NOSIG RMK REG QNH 1022=
METAR LKNA 140230Z 34004KT 9999 SCT047 08/06 Q1024 RMK BLU=
METAR LKPD 140230Z VRB02KT CAVOK 11/08 Q1024 RMK BLU=
METAR LKPJ 140230Z AUTO 17003KT 140V210 CAVOK 07/05 Q1024=
METAR LKPR 140230Z 26008KT CAVOK 07/06 Q1025 NOSIG RMK REG QNH 1022=
METAR LKTB 140230Z 34004KT CAVOK 10/06 Q1024 NOSIG RMK REG QNH 1022=
METAR LKVO NIL
METAR LOWI 140220Z AUTO VRB01KT 9999 NCD 11/08 Q1025=
METAR LOWL 140220Z 05004KT CAVOK 10/06 Q1025 NOSIG=
METAR LOWS 140220Z AUTO VRB02KT 9999 NCD 10/08 Q1024=
METAR LOWW 140220Z 32010KT CAVOK 11/06 Q1024 NOSIG=
METAR LZIB 140230Z 29006KT CAVOK 12/06 Q1023=
METAR LZKZ 140230Z 34007KT 9999 SCT036 14/07 Q1019=
METAR LZMC 140200Z AUTO 01005KT 5000 R19/1500 ////// 08/06 Q1024=
METAR LZPP 140230Z AUTO 35010KT 9999 NCD 09/07 Q1022=
METAR LZSL 140200Z AUTO 19003KT 6000 // FEW085/// OVC220/// 10/05 Q1022=
METAR LZTT 140230Z VRB02KT 9999 -RA FEW023 BKN050 09/06 Q1020=
METAR LZZI 140230Z 08005KT 040V120 9999 BKN028 12/08 Q1023=